sensor_id;sensor_type;location;lat;lon;timestamp;temperature;humidity
16182;DHT22;8197;51.664;7.114;2024-02-21T00:01:58;9.40;98.40
16182;DHT22;8197;51.664;7.114;2024-02-21T00:07:01;9.40;98.90
16182;DHT22;8197;51.664;7.114;2024-02-21T00:12:05;9.40;98.80
16182;DHT22;8197;51.664;7.114;2024-02-21T00:17:09;9.40;98.80
16182;DHT22;8197;51.664;7.114;2024-02-21T00:22:12;9.40;98.80
16182;DHT22;8197;51.664;7.114;2024-02-21T00:27:15;9.40;99.40
16182;DHT22;8197;51.664;7.114;2024-02-21T00:32:19;9.40;99.20
16182;DHT22;8197;51.664;7.114;2024-02-21T00:37:22;9.40;99.40
16182;DHT22;8197;51.664;7.114;2024-02-21T00:42:25;9.40;99.50
16182;DHT22;8197;51.664;7.114;2024-02-21T00:47:29;9.40;99.20
16182;DHT22;8197;51.664;7.114;2024-02-21T00:52:32;9.40;99.50
16182;DHT22;8197;51.664;7.114;2024-02-21T00:57:35;9.40;98.90
16182;DHT22;8197;51.664;7.114;2024-02-21T01:02:40;9.40;98.90
16182;DHT22;8197;51.664;7.114;2024-02-21T01:07:43;9.40;98.80
16182;DHT22;8197;51.664;7.114;2024-02-21T01:12:45;9.40;98.90
16182;DHT22;8197;51.664;7.114;2024-02-21T01:17:50;9.40;99.00
16182;DHT22;8197;51.664;7.114;2024-02-21T01:22:56;9.40;98.90
16182;DHT22;8197;51.664;7.114;2024-02-21T01:27:59;9.30;98.90
16182;DHT22;8197;51.664;7.114;2024-02-21T01:33:04;9.30;98.90
16182;DHT22;8197;51.664;7.114;2024-02-21T01:38:07;9.40;98.60
16182;DHT22;8197;51.664;7.114;2024-02-21T01:43:16;9.40;98.80
16182;DHT22;8197;51.664;7.114;2024-02-21T01:48:21;9.30;99.00
16182;DHT22;8197;51.664;7.114;2024-02-21T01:53:29;9.40;99.10
16182;DHT22;8197;51.664;7.114;2024-02-21T01:58:33;9.40;98.70
16182;DHT22;8197;51.664;7.114;2024-02-21T02:03:40;9.40;98.80
16182;DHT22;8197;51.664;7.114;2024-02-21T02:08:44;9.40;98.30
16182;DHT22;8197;51.664;7.114;2024-02-21T02:13:47;9.40;98.30
16182;DHT22;8197;51.664;7.114;2024-02-21T02:18:51;9.40;97.90
16182;DHT22;8197;51.664;7.114;2024-02-21T02:23:56;9.40;98.10
16182;DHT22;8197;51.664;7.114;2024-02-21T02:29:01;9.40;97.50
16182;DHT22;8197;51.664;7.114;2024-02-21T02:34:04;9.40;97.50
16182;DHT22;8197;51.664;7.114;2024-02-21T02:39:08;9.40;96.80
16182;DHT22;8197;51.664;7.114;2024-02-21T02:44:11;9.30;97.00
16182;DHT22;8197;51.664;7.114;2024-02-21T02:49:14;9.30;97.20
16182;DHT22;8197;51.664;7.114;2024-02-21T02:54:19;9.30;97.30
16182;DHT22;8197;51.664;7.114;2024-02-21T02:59:22;9.30;97.80
16182;DHT22;8197;51.664;7.114;2024-02-21T03:04:25;9.30;97.70
16182;DHT22;8197;51.664;7.114;2024-02-21T03:09:29;9.30;97.50
16182;DHT22;8197;51.664;7.114;2024-02-21T03:14:32;9.30;97.50
16182;DHT22;8197;51.664;7.114;2024-02-21T03:19:35;9.30;97.30
16182;DHT22;8197;51.664;7.114;2024-02-21T03:24:39;9.30;97.00
16182;DHT22;8197;51.664;7.114;2024-02-21T03:29:42;9.30;97.40
16182;DHT22;8197;51.664;7.114;2024-02-21T03:34:45;9.30;97.30
16182;DHT22;8197;51.664;7.114;2024-02-21T03:39:49;9.30;97.40
16182;DHT22;8197;51.664;7.114;2024-02-21T03:44:52;9.30;97.40
16182;DHT22;8197;51.664;7.114;2024-02-21T03:49:55;9.30;97.50
16182;DHT22;8197;51.664;7.114;2024-02-21T03:55:02;9.30;97.30
16182;DHT22;8197;51.664;7.114;2024-02-21T04:00:06;9.30;97.30
16182;DHT22;8197;51.664;7.114;2024-02-21T04:05:15;9.30;97.30
16182;DHT22;8197;51.664;7.114;2024-02-21T04:10:20;9.30;97.50
16182;DHT22;8197;51.664;7.114;2024-02-21T04:15:23;9.20;97.10
16182;DHT22;8197;51.664;7.114;2024-02-21T04:20:26;9.30;97.10
16182;DHT22;8197;51.664;7.114;2024-02-21T04:25:31;9.30;97.10
16182;DHT22;8197;51.664;7.114;2024-02-21T04:30:34;9.30;96.50
16182;DHT22;8197;51.664;7.114;2024-02-21T04:35:37;9.30;96.30
16182;DHT22;8197;51.664;7.114;2024-02-21T04:40:42;9.30;96.20
16182;DHT22;8197;51.664;7.114;2024-02-21T04:45:45;9.30;96.00
16182;DHT22;8197;51.664;7.114;2024-02-21T04:50:48;9.30;96.60
16182;DHT22;8197;51.664;7.114;2024-02-21T04:55:52;9.30;96.60
16182;DHT22;8197;51.664;7.114;2024-02-21T05:00:55;9.30;97.40
16182;DHT22;8197;51.664;7.114;2024-02-21T05:05:59;9.30;97.60
16182;DHT22;8197;51.664;7.114;2024-02-21T05:11:03;9.30;98.30
16182;DHT22;8197;51.664;7.114;2024-02-21T05:16:06;9.20;97.90
16182;DHT22;8197;51.664;7.114;2024-02-21T05:21:09;9.30;98.60
16182;DHT22;8197;51.664;7.114;2024-02-21T05:26:20;9.20;98.90
16182;DHT22;8197;51.664;7.114;2024-02-21T05:31:23;9.20;98.90
16182;DHT22;8197;51.664;7.114;2024-02-21T05:36:26;9.20;98.90
16182;DHT22;8197;51.664;7.114;2024-02-21T05:41:31;9.20;99.00
16182;DHT22;8197;51.664;7.114;2024-02-21T05:46:34;9.10;98.90
16182;DHT22;8197;51.664;7.114;2024-02-21T05:51:37;9.10;98.60
16182;DHT22;8197;51.664;7.114;2024-02-21T05:56:45;9.10;98.70
16182;DHT22;8197;51.664;7.114;2024-02-21T06:01:55;9.10;98.80
16182;DHT22;8197;51.664;7.114;2024-02-21T06:06:59;9.10;98.40
16182;DHT22;8197;51.664;7.114;2024-02-21T06:12:04;9.00;98.10
16182;DHT22;8197;51.664;7.114;2024-02-21T06:17:07;9.10;98.10
16182;DHT22;8197;51.664;7.114;2024-02-21T06:22:10;9.10;98.10
16182;DHT22;8197;51.664;7.114;2024-02-21T06:27:15;9.10;98.00
16182;DHT22;8197;51.664;7.114;2024-02-21T06:32:18;9.00;97.90
16182;DHT22;8197;51.664;7.114;2024-02-21T06:37:21;9.00;98.00
16182;DHT22;8197;51.664;7.114;2024-02-21T06:42:26;9.10;97.80
16182;DHT22;8197;51.664;7.114;2024-02-21T06:47:29;9.10;97.40
16182;DHT22;8197;51.664;7.114;2024-02-21T06:52:32;9.10;97.40
16182;DHT22;8197;51.664;7.114;2024-02-21T06:57:37;9.10;97.40
16182;DHT22;8197;51.664;7.114;2024-02-21T07:02:39;9.10;97.10
16182;DHT22;8197;51.664;7.114;2024-02-21T07:07:42;9.10;97.10
16182;DHT22;8197;51.664;7.114;2024-02-21T07:12:47;9.10;97.10
16182;DHT22;8197;51.664;7.114;2024-02-21T07:17:50;9.10;96.90
16182;DHT22;8197;51.664;7.114;2024-02-21T07:22:53;9.10;96.90
16182;DHT22;8197;51.664;7.114;2024-02-21T07:27:57;9.20;96.40
16182;DHT22;8197;51.664;7.114;2024-02-21T07:33:00;9.20;96.20
16182;DHT22;8197;51.664;7.114;2024-02-21T07:38:03;9.20;95.40
16182;DHT22;8197;51.664;7.114;2024-02-21T07:43:08;9.20;95.20
16182;DHT22;8197;51.664;7.114;2024-02-21T07:48:11;9.30;94.80
16182;DHT22;8197;51.664;7.114;2024-02-21T07:53:15;9.30;95.20
16182;DHT22;8197;51.664;7.114;2024-02-21T07:58:19;9.30;94.90
16182;DHT22;8197;51.664;7.114;2024-02-21T08:03:22;9.30;94.50
16182;DHT22;8197;51.664;7.114;2024-02-21T08:08:27;9.30;94.40
16182;DHT22;8197;51.664;7.114;2024-02-21T08:13:31;9.30;94.00
16182;DHT22;8197;51.664;7.114;2024-02-21T08:18:34;9.40;93.60
16182;DHT22;8197;51.664;7.114;2024-02-21T08:23:38;9.40;92.80
16182;DHT22;8197;51.664;7.114;2024-02-21T08:28:42;9.50;93.20
16182;DHT22;8197;51.664;7.114;2024-02-21T08:33:45;9.50;93.00
16182;DHT22;8197;51.664;7.114;2024-02-21T08:38:51;9.60;92.20
16182;DHT22;8197;51.664;7.114;2024-02-21T08:43:56;9.60;92.20
16182;DHT22;8197;51.664;7.114;2024-02-21T08:48:59;9.60;91.80
16182;DHT22;8197;51.664;7.114;2024-02-21T08:54:02;9.60;91.60
16182;DHT22;8197;51.664;7.114;2024-02-21T08:59:07;9.60;91.70
16182;DHT22;8197;51.664;7.114;2024-02-21T09:04:11;9.70;91.30
16182;DHT22;8197;51.664;7.114;2024-02-21T09:09:14;9.70;91.00
16182;DHT22;8197;51.664;7.114;2024-02-21T09:14:18;9.70;91.10
16182;DHT22;8197;51.664;7.114;2024-02-21T09:19:21;9.80;91.50
16182;DHT22;8197;51.664;7.114;2024-02-21T09:24:25;9.80;91.70
16182;DHT22;8197;51.664;7.114;2024-02-21T09:29:29;9.70;92.10
16182;DHT22;8197;51.664;7.114;2024-02-21T09:34:33;9.60;91.60
16182;DHT22;8197;51.664;7.114;2024-02-21T09:39:36;9.60;90.00
16182;DHT22;8197;51.664;7.114;2024-02-21T09:44:41;9.70;89.80
16182;DHT22;8197;51.664;7.114;2024-02-21T09:49:45;9.80;89.60
16182;DHT22;8197;51.664;7.114;2024-02-21T09:54:49;9.80;88.70
16182;DHT22;8197;51.664;7.114;2024-02-21T09:59:55;9.80;87.90
16182;DHT22;8197;51.664;7.114;2024-02-21T10:05:00;9.90;88.70
16182;DHT22;8197;51.664;7.114;2024-02-21T10:10:07;10.00;88.30
16182;DHT22;8197;51.664;7.114;2024-02-21T10:15:11;10.10;87.60
16182;DHT22;8197;51.664;7.114;2024-02-21T10:20:14;10.00;87.10
16182;DHT22;8197;51.664;7.114;2024-02-21T10:25:18;10.00;87.20
16182;DHT22;8197;51.664;7.114;2024-02-21T10:30:23;9.90;87.40
16182;DHT22;8197;51.664;7.114;2024-02-21T10:35:26;9.90;86.70
16182;DHT22;8197;51.664;7.114;2024-02-21T10:40:30;9.90;86.50
16182;DHT22;8197;51.664;7.114;2024-02-21T10:45:35;9.90;86.60
16182;DHT22;8197;51.664;7.114;2024-02-21T10:50:47;9.90;86.40
16182;DHT22;8197;51.664;7.114;2024-02-21T10:56:01;10.00;86.30
16182;DHT22;8197;51.664;7.114;2024-02-21T11:01:08;10.00;86.30
16182;DHT22;8197;51.664;7.114;2024-02-21T11:06:11;9.90;86.60
16182;DHT22;8197;51.664;7.114;2024-02-21T11:11:15;10.00;86.60
16182;DHT22;8197;51.664;7.114;2024-02-21T11:16:37;10.00;86.60
16182;DHT22;8197;51.664;7.114;2024-02-21T11:21:43;10.10;86.50
16182;DHT22;8197;51.664;7.114;2024-02-21T11:26:49;10.10;85.70
16182;DHT22;8197;51.664;7.114;2024-02-21T11:31:53;10.20;84.70
16182;DHT22;8197;51.664;7.114;2024-02-21T11:36:57;10.20;84.20
16182;DHT22;8197;51.664;7.114;2024-02-21T11:42:04;10.30;83.80
16182;DHT22;8197;51.664;7.114;2024-02-21T11:47:09;10.30;83.30
16182;DHT22;8197;51.664;7.114;2024-02-21T11:52:12;10.30;82.80
16182;DHT22;8197;51.664;7.114;2024-02-21T11:57:17;10.40;82.30
16182;DHT22;8197;51.664;7.114;2024-02-21T12:02:21;10.50;82.40
16182;DHT22;8197;51.664;7.114;2024-02-21T12:07:25;10.50;81.70
16182;DHT22;8197;51.664;7.114;2024-02-21T12:12:30;10.60;82.30
16182;DHT22;8197;51.664;7.114;2024-02-21T12:17:40;10.60;80.60
16182;DHT22;8197;51.664;7.114;2024-02-21T12:22:43;10.70;80.70
16182;DHT22;8197;51.664;7.114;2024-02-21T12:27:46;10.70;80.50
16182;DHT22;8197;51.664;7.114;2024-02-21T12:32:52;10.70;80.50
16182;DHT22;8197;51.664;7.114;2024-02-21T12:37:55;10.70;80.20
16182;DHT22;8197;51.664;7.114;2024-02-21T12:42:58;10.70;80.00
16182;DHT22;8197;51.664;7.114;2024-02-21T12:48:06;10.70;79.40
16182;DHT22;8197;51.664;7.114;2024-02-21T12:53:09;10.80;79.50
16182;DHT22;8197;51.664;7.114;2024-02-21T12:58:26;10.80;78.60
16182;DHT22;8197;51.664;7.114;2024-02-21T13:03:31;10.90;78.00
16182;DHT22;8197;51.664;7.114;2024-02-21T13:08:35;10.90;77.70
16182;DHT22;8197;51.664;7.114;2024-02-21T13:13:37;11.00;76.80
16182;DHT22;8197;51.664;7.114;2024-02-21T13:18:42;11.00;75.90
16182;DHT22;8197;51.664;7.114;2024-02-21T13:23:46;11.10;74.90
16182;DHT22;8197;51.664;7.114;2024-02-21T13:28:49;11.20;75.50
16182;DHT22;8197;51.664;7.114;2024-02-21T13:33:53;11.20;74.20
16182;DHT22;8197;51.664;7.114;2024-02-21T13:38:56;11.20;75.20
16182;DHT22;8197;51.664;7.114;2024-02-21T13:43:59;11.20;75.00
16182;DHT22;8197;51.664;7.114;2024-02-21T13:49:05;11.30;73.50
16182;DHT22;8197;51.664;7.114;2024-02-21T13:54:09;11.30;73.90
16182;DHT22;8197;51.664;7.114;2024-02-21T13:59:13;11.20;74.20
16182;DHT22;8197;51.664;7.114;2024-02-21T14:04:17;11.30;73.70
16182;DHT22;8197;51.664;7.114;2024-02-21T14:09:20;11.30;74.30
16182;DHT22;8197;51.664;7.114;2024-02-21T14:14:23;11.30;74.30
16182;DHT22;8197;51.664;7.114;2024-02-21T14:19:27;11.30;74.10
16182;DHT22;8197;51.664;7.114;2024-02-21T14:24:31;11.40;74.00
16182;DHT22;8197;51.664;7.114;2024-02-21T14:29:33;11.40;73.10
16182;DHT22;8197;51.664;7.114;2024-02-21T14:34:38;11.40;73.80
16182;DHT22;8197;51.664;7.114;2024-02-21T14:39:41;11.40;72.90
16182;DHT22;8197;51.664;7.114;2024-02-21T14:44:44;11.40;73.40
16182;DHT22;8197;51.664;7.114;2024-02-21T14:49:49;11.40;73.10
16182;DHT22;8197;51.664;7.114;2024-02-21T14:54:52;11.40;73.00
16182;DHT22;8197;51.664;7.114;2024-02-21T14:59:54;11.40;73.20
16182;DHT22;8197;51.664;7.114;2024-02-21T15:05:02;11.40;73.30
16182;DHT22;8197;51.664;7.114;2024-02-21T15:10:07;11.40;73.60
16182;DHT22;8197;51.664;7.114;2024-02-21T15:15:10;11.30;72.70
16182;DHT22;8197;51.664;7.114;2024-02-21T15:20:15;11.30;72.70
16182;DHT22;8197;51.664;7.114;2024-02-21T15:25:17;11.30;72.60
16182;DHT22;8197;51.664;7.114;2024-02-21T15:30:22;11.20;72.40
16182;DHT22;8197;51.664;7.114;2024-02-21T15:35:26;11.20;72.60
16182;DHT22;8197;51.664;7.114;2024-02-21T15:40:29;11.20;72.80
16182;DHT22;8197;51.664;7.114;2024-02-21T15:45:32;11.20;73.50
16182;DHT22;8197;51.664;7.114;2024-02-21T15:50:36;11.20;73.00
16182;DHT22;8197;51.664;7.114;2024-02-21T15:55:39;11.20;72.10
16182;DHT22;8197;51.664;7.114;2024-02-21T16:00:42;11.20;72.60
16182;DHT22;8197;51.664;7.114;2024-02-21T16:05:48;11.20;72.90
16182;DHT22;8197;51.664;7.114;2024-02-21T16:10:52;11.10;73.00
16182;DHT22;8197;51.664;7.114;2024-02-21T16:15:55;11.10;73.10
16182;DHT22;8197;51.664;7.114;2024-02-21T16:20:59;11.10;73.10
16182;DHT22;8197;51.664;7.114;2024-02-21T16:26:03;11.10;74.30
16182;DHT22;8197;51.664;7.114;2024-02-21T16:31:06;11.00;73.80
16182;DHT22;8197;51.664;7.114;2024-02-21T16:36:19;11.00;73.80
16182;DHT22;8197;51.664;7.114;2024-02-21T16:41:24;11.00;76.40
16182;DHT22;8197;51.664;7.114;2024-02-21T16:46:26;10.90;78.80
16182;DHT22;8197;51.664;7.114;2024-02-21T16:51:31;10.90;78.80
16182;DHT22;8197;51.664;7.114;2024-02-21T16:56:34;10.80;81.10
16182;DHT22;8197;51.664;7.114;2024-02-21T17:01:38;10.70;82.00
16182;DHT22;8197;51.664;7.114;2024-02-21T17:06:44;10.50;83.80
16182;DHT22;8197;51.664;7.114;2024-02-21T17:11:47;10.40;86.50
16182;DHT22;8197;51.664;7.114;2024-02-21T17:16:51;10.20;88.90
16182;DHT22;8197;51.664;7.114;2024-02-21T17:21:57;10.10;91.30
16182;DHT22;8197;51.664;7.114;2024-02-21T17:27:01;9.90;93.40
16182;DHT22;8197;51.664;7.114;2024-02-21T17:32:06;9.80;94.10
16182;DHT22;8197;51.664;7.114;2024-02-21T17:37:11;9.70;94.70
16182;DHT22;8197;51.664;7.114;2024-02-21T17:42:14;9.60;95.00
16182;DHT22;8197;51.664;7.114;2024-02-21T17:47:17;9.60;95.80
16182;DHT22;8197;51.664;7.114;2024-02-21T17:52:22;9.50;96.10
16182;DHT22;8197;51.664;7.114;2024-02-21T17:57:25;9.40;98.00
16182;DHT22;8197;51.664;7.114;2024-02-21T18:02:28;9.30;97.30
16182;DHT22;8197;51.664;7.114;2024-02-21T18:07:32;9.20;98.30
16182;DHT22;8197;51.664;7.114;2024-02-21T18:12:38;9.20;99.00
16182;DHT22;8197;51.664;7.114;2024-02-21T18:17:41;9.20;98.80
16182;DHT22;8197;51.664;7.114;2024-02-21T18:22:45;9.20;98.20
16182;DHT22;8197;51.664;7.114;2024-02-21T18:27:48;9.10;98.90
16182;DHT22;8197;51.664;7.114;2024-02-21T18:32:51;9.00;99.40
16182;DHT22;8197;51.664;7.114;2024-02-21T18:37:55;9.00;100.00
16182;DHT22;8197;51.664;7.114;2024-02-21T18:42:58;8.90;100.00
16182;DHT22;8197;51.664;7.114;2024-02-21T18:48:03;8.80;100.00
16182;DHT22;8197;51.664;7.114;2024-02-21T18:53:08;8.80;100.00
16182;DHT22;8197;51.664;7.114;2024-02-21T18:58:11;8.70;100.00
16182;DHT22;8197;51.664;7.114;2024-02-21T19:03:14;8.70;100.00
16182;DHT22;8197;51.664;7.114;2024-02-21T19:08:18;8.70;100.00
16182;DHT22;8197;51.664;7.114;2024-02-21T19:13:21;8.60;100.00
16182;DHT22;8197;51.664;7.114;2024-02-21T19:18:24;8.70;100.00
16182;DHT22;8197;51.664;7.114;2024-02-21T19:23:31;8.60;100.00
16182;DHT22;8197;51.664;7.114;2024-02-21T19:28:35;8.60;100.00
16182;DHT22;8197;51.664;7.114;2024-02-21T19:33:38;8.60;100.00
16182;DHT22;8197;51.664;7.114;2024-02-21T19:38:42;8.50;100.00
16182;DHT22;8197;51.664;7.114;2024-02-21T19:43:45;8.50;100.00
16182;DHT22;8197;51.664;7.114;2024-02-21T19:48:49;8.50;100.00
16182;DHT22;8197;51.664;7.114;2024-02-21T19:53:53;8.50;100.00
16182;DHT22;8197;51.664;7.114;2024-02-21T19:59:19;8.50;100.00
16182;DHT22;8197;51.664;7.114;2024-02-21T20:04:22;8.50;100.00
16182;DHT22;8197;51.664;7.114;2024-02-21T20:09:27;8.50;100.00
16182;DHT22;8197;51.664;7.114;2024-02-21T20:14:29;8.50;100.00
16182;DHT22;8197;51.664;7.114;2024-02-21T20:19:32;8.50;100.00
16182;DHT22;8197;51.664;7.114;2024-02-21T20:24:37;8.50;100.00
16182;DHT22;8197;51.664;7.114;2024-02-21T20:29:42;8.50;100.00
16182;DHT22;8197;51.664;7.114;2024-02-21T20:34:45;8.50;100.00
16182;DHT22;8197;51.664;7.114;2024-02-21T20:39:51;8.50;100.00
16182;DHT22;8197;51.664;7.114;2024-02-21T20:45:09;8.50;100.00
16182;DHT22;8197;51.664;7.114;2024-02-21T20:50:12;8.50;100.00
16182;DHT22;8197;51.664;7.114;2024-02-21T20:55:17;8.50;100.00
16182;DHT22;8197;51.664;7.114;2024-02-21T21:00:26;8.50;100.00
16182;DHT22;8197;51.664;7.114;2024-02-21T21:05:29;8.50;100.00
16182;DHT22;8197;51.664;7.114;2024-02-21T21:10:33;8.50;100.00
16182;DHT22;8197;51.664;7.114;2024-02-21T21:15:37;8.60;100.00
16182;DHT22;8197;51.664;7.114;2024-02-21T21:20:40;8.50;100.00
16182;DHT22;8197;51.664;7.114;2024-02-21T21:25:44;8.60;100.00
16182;DHT22;8197;51.664;7.114;2024-02-21T21:30:47;8.60;100.00
16182;DHT22;8197;51.664;7.114;2024-02-21T21:35:51;8.60;100.00
16182;DHT22;8197;51.664;7.114;2024-02-21T21:40:56;8.60;100.00
16182;DHT22;8197;51.664;7.114;2024-02-21T21:46:00;8.50;100.00
16182;DHT22;8197;51.664;7.114;2024-02-21T21:51:04;8.50;100.00
16182;DHT22;8197;51.664;7.114;2024-02-21T21:56:08;8.60;100.00
16182;DHT22;8197;51.664;7.114;2024-02-21T22:01:12;8.60;100.00
16182;DHT22;8197;51.664;7.114;2024-02-21T22:06:16;8.60;100.00
16182;DHT22;8197;51.664;7.114;2024-02-21T22:11:20;8.60;100.00
16182;DHT22;8197;51.664;7.114;2024-02-21T22:16:24;8.60;100.00
16182;DHT22;8197;51.664;7.114;2024-02-21T22:21:27;8.60;100.00
16182;DHT22;8197;51.664;7.114;2024-02-21T22:26:31;8.60;100.00
16182;DHT22;8197;51.664;7.114;2024-02-21T22:31:34;8.70;100.00
16182;DHT22;8197;51.664;7.114;2024-02-21T22:36:37;8.70;100.00
16182;DHT22;8197;51.664;7.114;2024-02-21T22:41:42;8.70;100.00
16182;DHT22;8197;51.664;7.114;2024-02-21T22:46:46;8.70;100.00
16182;DHT22;8197;51.664;7.114;2024-02-21T22:51:50;8.70;100.00
16182;DHT22;8197;51.664;7.114;2024-02-21T22:56:54;8.70;100.00
16182;DHT22;8197;51.664;7.114;2024-02-21T23:01:57;8.70;100.00
16182;DHT22;8197;51.664;7.114;2024-02-21T23:07:00;8.70;100.00
16182;DHT22;8197;51.664;7.114;2024-02-21T23:12:05;8.70;100.00
16182;DHT22;8197;51.664;7.114;2024-02-21T23:17:09;8.70;100.00
16182;DHT22;8197;51.664;7.114;2024-02-21T23:22:12;8.80;100.00
16182;DHT22;8197;51.664;7.114;2024-02-21T23:27:17;8.80;100.00
16182;DHT22;8197;51.664;7.114;2024-02-21T23:32:19;8.80;100.00
16182;DHT22;8197;51.664;7.114;2024-02-21T23:37:22;8.80;100.00
16182;DHT22;8197;51.664;7.114;2024-02-21T23:42:27;8.80;100.00
16182;DHT22;8197;51.664;7.114;2024-02-21T23:47:30;8.80;100.00
16182;DHT22;8197;51.664;7.114;2024-02-21T23:52:33;8.80;100.00
16182;DHT22;8197;51.664;7.114;2024-02-21T23:57:37;8.90;100.00
